createdAt,value
2023-05-03T00:00:46.923Z,9.23
2023-05-03T00:03:40.403Z,8.77
2023-05-03T00:06:42.843Z,9.27
2023-05-03T00:09:25.061Z,8.82
2023-05-03T00:15:54.260Z,8.65
2023-05-03T00:18:40.783Z,7.85
2023-05-03T00:21:47.079Z,9.30
2023-05-03T00:24:30.097Z,8.52
2023-05-03T00:28:10.383Z,8.63
2023-05-03T00:30:55.569Z,8.98
2023-05-03T00:38:11.150Z,9.55
2023-05-03T00:41:03.439Z,8.35
2023-05-03T00:43:45.352Z,9.15
2023-05-03T00:46:29.773Z,9.35
2023-05-03T00:49:51.900Z,10.18
2023-05-03T00:55:46.468Z,8.95
2023-05-03T00:59:42.261Z,8.20
2023-05-03T01:15:18.367Z,9.38
2023-05-03T01:27:23.297Z,9.02
2023-05-03T01:29:59.393Z,10.23
2023-05-03T01:33:20.137Z,9.70
2023-05-03T01:36:31.279Z,9.57
2023-05-03T01:40:28.225Z,10.02
2023-05-03T01:43:04.619Z,10.02
2023-05-03T01:46:43.842Z,11.20
2023-05-03T02:12:41.561Z,10.90
2023-05-03T02:15:25.591Z,11.05
2023-05-03T02:25:09.991Z,9.98
2023-05-03T02:28:04.040Z,10.60
2023-05-03T02:31:14.154Z,10.32
2023-05-03T02:42:43.850Z,11.70
2023-05-03T02:46:27.910Z,10.30
2023-05-03T02:49:29.743Z,11.60
2023-05-03T02:52:36.719Z,10.23
2023-05-03T02:55:18.322Z,10.68
2023-05-03T03:00:25.509Z,10.25
2023-05-03T03:02:58.240Z,11.52
2023-05-03T03:05:28.202Z,10.48
2023-05-03T03:07:56.882Z,10.82
2023-05-03T03:10:33.502Z,11.65
2023-05-03T03:16:37.056Z,10.80
2023-05-03T03:22:05.704Z,11.43
2023-05-03T03:24:46.923Z,12.27
2023-05-03T03:27:30.504Z,12.48
2023-05-03T03:30:13.878Z,11.52
2023-05-03T03:32:55.151Z,11.57
2023-05-03T03:35:30.999Z,11.32
2023-05-03T03:37:58.225Z,11.52
2023-05-03T03:40:31.003Z,12.70
2023-05-03T03:43:18.166Z,11.60
2023-05-03T03:51:53.500Z,12.55
2023-05-03T03:54:55.943Z,12.80
2023-05-03T03:57:41.590Z,12.45
2023-05-03T04:00:30.201Z,12.82
2023-05-03T04:03:13.979Z,13.15
2023-05-03T04:05:44.813Z,12.52
2023-05-03T04:08:40.020Z,13.13
2023-05-03T04:11:25.472Z,12.60
2023-05-03T04:14:01.684Z,13.57
2023-05-03T04:16:30.307Z,12.68
2023-05-03T04:19:23.535Z,12.85
2023-05-03T04:24:46.016Z,12.80
2023-05-03T04:27:14.906Z,12.90
2023-05-03T04:29:42.311Z,12.65
2023-05-03T04:32:09.868Z,13.70
2023-05-03T04:34:37.862Z,13.95
2023-05-03T04:37:06.220Z,12.90
2023-05-03T04:39:33.765Z,14.15
2023-05-03T04:42:02.286Z,13.80
2023-05-03T04:44:29.466Z,12.45
2023-05-03T04:46:57.391Z,14.65
2023-05-03T04:51:55.172Z,18.17
2023-05-03T04:54:24.145Z,14.90
2023-05-03T04:56:51.757Z,15.38
2023-05-03T04:59:19.274Z,14.88
2023-05-03T05:01:47.453Z,15.68
2023-05-03T05:04:15.252Z,14.18
2023-05-03T05:06:47.048Z,15.48
2023-05-03T05:09:23.905Z,14.55
2023-05-03T05:11:56.113Z,13.85
2023-05-03T05:14:28.479Z,15.27
2023-05-03T05:16:56.706Z,13.55
2023-05-03T05:19:23.927Z,15.02
2023-05-03T05:21:52.423Z,13.68
2023-05-03T05:24:20.689Z,15.23
2023-05-03T05:26:47.871Z,13.82
2023-05-03T05:29:16.531Z,14.15
2023-05-03T05:31:43.964Z,14.35
2023-05-03T05:34:11.175Z,15.35
2023-05-03T05:36:38.411Z,15.65
2023-05-03T05:39:06.669Z,13.52
2023-05-03T05:41:34.000Z,13.68
2023-05-03T05:44:01.178Z,15.43
2023-05-03T05:46:30.113Z,15.07
2023-05-03T05:48:57.699Z,14.60
2023-05-03T05:51:24.978Z,13.60
2023-05-03T05:53:52.134Z,15.35
2023-05-03T05:56:20.712Z,13.63
2023-05-03T05:58:47.833Z,13.95
2023-05-03T06:01:14.904Z,15.43
2023-05-03T06:03:42.347Z,12.98
2023-05-03T06:06:09.881Z,14.35
2023-05-03T06:08:37.288Z,14.20
2023-05-03T06:11:05.426Z,14.30
2023-05-03T06:13:34.746Z,14.70
2023-05-03T06:16:02.679Z,14.07
2023-05-03T06:18:29.861Z,12.85
2023-05-03T06:20:57.397Z,14.45
2023-05-03T06:23:24.479Z,13.70
2023-05-03T06:25:53.169Z,14.35
2023-05-03T06:28:21.099Z,14.02
2023-05-03T06:30:51.981Z,14.27
2023-05-03T06:33:19.196Z,13.18
2023-05-03T06:35:49.872Z,13.55
2023-05-03T06:38:18.688Z,13.95
2023-05-03T06:40:46.618Z,11.98
2023-05-03T06:43:13.755Z,13.05
2023-05-03T06:45:56.138Z,12.55
2023-05-03T06:48:23.967Z,13.07
2023-05-03T06:50:51.158Z,12.63
2023-05-03T06:53:18.243Z,12.55
2023-05-03T06:55:46.323Z,11.40
2023-05-03T06:58:13.452Z,12.07
2023-05-03T07:00:41.200Z,12.73
2023-05-03T07:03:08.472Z,13.65
2023-05-03T07:05:35.739Z,12.43
2023-05-03T07:08:03.698Z,12.95
2023-05-03T07:10:31.756Z,12.40
2023-05-03T07:12:59.022Z,13.07
2023-05-03T07:15:26.249Z,12.65
2023-05-03T07:17:53.307Z,11.90
2023-05-03T07:20:20.513Z,12.38
2023-05-03T07:22:48.353Z,12.80
2023-05-03T07:25:17.886Z,11.75
2023-05-03T07:27:45.107Z,12.15
2023-05-03T07:30:12.442Z,12.57
2023-05-03T07:32:39.642Z,12.65
2023-05-03T07:35:07.998Z,12.15
2023-05-03T07:37:35.076Z,12.45
2023-05-03T07:40:02.247Z,12.32
2023-05-03T07:42:29.624Z,11.43
2023-05-03T07:44:56.744Z,11.35
2023-05-03T07:47:23.840Z,10.50
2023-05-03T07:49:51.407Z,11.25
2023-05-03T07:52:18.586Z,10.50
2023-05-03T07:54:48.359Z,10.88
2023-05-03T07:59:43.832Z,10.48
2023-05-03T08:02:11.056Z,10.02
2023-05-03T08:04:38.358Z,10.35
2023-05-03T08:07:05.652Z,9.30
2023-05-03T08:09:32.736Z,10.55
2023-05-03T08:11:59.801Z,10.70
2023-05-03T08:14:27.756Z,9.88
2023-05-03T08:16:54.856Z,10.43
2023-05-03T08:19:21.887Z,9.63
2023-05-03T08:21:48.978Z,9.85
2023-05-03T08:24:16.299Z,9.75
2023-05-03T08:26:45.176Z,10.25
2023-05-03T08:29:12.236Z,9.73
2023-05-03T08:31:39.935Z,10.02
2023-05-03T08:34:08.079Z,9.45
2023-05-03T08:36:35.919Z,9.52
2023-05-03T08:39:06.598Z,10.25
2023-05-03T08:41:33.999Z,9.50
2023-05-03T08:44:02.255Z,9.48
2023-05-03T08:46:29.566Z,9.35
2023-05-03T08:48:57.259Z,9.82
2023-05-03T08:51:25.257Z,10.23
2023-05-03T08:53:52.635Z,10.15
2023-05-03T08:56:41.664Z,11.45
2023-05-03T08:59:09.435Z,9.87
2023-05-03T09:01:37.736Z,11.05
2023-05-03T09:04:05.713Z,10.15
2023-05-03T09:06:33.667Z,9.93
2023-05-03T09:09:02.180Z,10.55
2023-05-03T09:11:31.751Z,9.57
2023-05-03T09:14:18.761Z,9.70
2023-05-03T09:16:47.499Z,10.35
2023-05-03T09:19:15.973Z,10.10
2023-05-03T09:21:45.589Z,9.52
2023-05-03T09:24:22.682Z,10.45
2023-05-03T09:26:51.941Z,9.60
2023-05-03T09:29:30.653Z,10.80
2023-05-03T09:32:08.905Z,10.15
2023-05-03T09:34:37.230Z,9.25
2023-05-03T09:37:04.728Z,9.20
2023-05-03T09:39:32.488Z,10.13
2023-05-03T09:42:00.963Z,9.48
2023-05-03T09:44:54.036Z,10.00
2023-05-03T09:47:25.611Z,8.85
2023-05-03T09:49:52.891Z,9.48
2023-05-03T09:52:21.321Z,9.32
2023-05-03T09:54:50.027Z,9.23
2023-05-03T09:57:17.592Z,9.40
2023-05-03T09:59:46.306Z,8.63
2023-05-03T10:02:13.695Z,8.55
2023-05-03T10:04:47.987Z,8.25
2023-05-03T10:07:18.460Z,8.10
2023-05-03T10:09:48.191Z,8.73
2023-05-03T10:14:47.274Z,8.68
2023-05-03T10:17:22.194Z,8.27
2023-05-03T10:20:08.036Z,8.65
2023-05-03T10:23:14.028Z,9.23
2023-05-03T10:26:13.568Z,7.78
2023-05-03T10:28:40.844Z,8.63
2023-05-03T10:31:47.722Z,8.00
2023-05-03T10:34:23.708Z,7.82
2023-05-03T10:36:55.538Z,7.32
2023-05-03T10:39:23.272Z,7.90
2023-05-03T10:42:03.224Z,7.25
2023-05-03T10:44:49.347Z,7.13
2023-05-03T10:47:17.970Z,8.13
2023-05-03T10:49:45.779Z,8.38
2023-05-03T10:52:37.886Z,8.23
2023-05-03T10:55:13.063Z,7.70
2023-05-03T10:57:42.834Z,8.18
2023-05-03T11:03:13.316Z,8.40
2023-05-03T11:05:40.565Z,7.43
2023-05-03T11:08:19.538Z,7.70
2023-05-03T11:10:48.578Z,8.00
2023-05-03T11:13:16.329Z,11.27
2023-05-03T11:15:47.675Z,8.05
2023-05-03T11:18:15.481Z,7.72
2023-05-03T11:20:42.540Z,7.63
2023-05-03T11:23:11.695Z,7.43
2023-05-03T11:25:39.354Z,7.05
2023-05-03T11:28:08.588Z,7.05
2023-05-03T11:30:37.521Z,7.75
2023-05-03T11:33:04.771Z,7.18
2023-05-03T11:35:33.132Z,6.72
2023-05-03T11:38:00.628Z,7.20
2023-05-03T11:40:27.916Z,7.25
2023-05-03T11:42:56.231Z,7.20
2023-05-03T11:45:30.029Z,5.88
2023-05-03T11:48:22.461Z,6.97
2023-05-03T11:50:56.685Z,6.60
2023-05-03T11:53:25.230Z,6.53
2023-05-03T11:55:56.098Z,5.63
2023-05-03T11:58:28.228Z,6.80
2023-05-03T12:00:57.599Z,6.88
2023-05-03T12:03:30.740Z,7.97
2023-05-03T12:06:02.683Z,7.00
2023-05-03T12:08:34.723Z,6.88
2023-05-03T12:11:06.182Z,6.35
2023-05-03T12:13:38.682Z,6.13
2023-05-03T12:16:11.985Z,6.45
2023-05-03T12:18:48.009Z,6.15
2023-05-03T12:23:47.062Z,5.72
2023-05-03T12:26:18.649Z,6.47
2023-05-03T12:28:48.696Z,5.85
2023-05-03T12:36:37.842Z,6.65
2023-05-03T12:39:10.026Z,6.20
2023-05-03T12:44:10.681Z,5.80
2023-05-03T12:46:39.185Z,6.07
2023-05-03T12:49:08.565Z,6.22
2023-05-03T12:51:36.664Z,7.00
2023-05-03T12:54:10.146Z,6.55
2023-05-03T12:56:40.247Z,7.07
2023-05-03T12:59:39.307Z,6.25
2023-05-03T13:06:59.896Z,6.97
2023-05-03T13:09:38.060Z,7.53
2023-05-03T13:12:15.490Z,6.30
2023-05-03T13:14:43.026Z,7.10
2023-05-03T13:17:10.422Z,6.68
2023-05-03T13:19:37.975Z,6.78
2023-05-03T13:22:05.317Z,7.05
2023-05-03T13:24:32.471Z,7.03
2023-05-03T13:26:59.736Z,6.20
2023-05-03T13:29:26.919Z,5.75
2023-05-03T13:31:54.344Z,6.15
2023-05-03T13:34:21.722Z,6.05
2023-05-03T13:36:50.227Z,6.10
2023-05-03T13:39:19.239Z,7.15
2023-05-03T13:41:48.191Z,7.18
2023-05-03T13:44:15.348Z,6.28
2023-05-03T13:46:43.612Z,6.40
2023-05-03T13:49:14.731Z,6.10
2023-05-03T13:51:43.749Z,5.72
2023-05-03T13:54:11.117Z,6.82
2023-05-03T13:56:38.336Z,5.88
2023-05-03T13:59:08.156Z,6.30
2023-05-03T14:01:36.333Z,5.75
2023-05-03T14:04:05.086Z,6.00
2023-05-03T14:06:33.650Z,5.47
2023-05-03T14:09:02.191Z,6.32
2023-05-03T14:11:30.962Z,6.05
2023-05-03T14:13:58.997Z,5.95
2023-05-03T14:16:40.278Z,6.10
2023-05-03T14:19:11.193Z,6.65
2023-05-03T14:21:38.946Z,5.60
2023-05-03T14:24:06.870Z,6.40
2023-05-03T14:26:34.430Z,6.05
2023-05-03T14:29:01.841Z,6.18
2023-05-03T14:31:29.116Z,5.72
2023-05-03T14:33:56.368Z,5.50
2023-05-03T14:36:23.491Z,6.63
2023-05-03T14:38:50.544Z,5.72
2023-05-03T14:41:17.589Z,6.97
2023-05-03T14:43:44.622Z,6.63
2023-05-03T14:46:11.729Z,6.45
2023-05-03T14:48:38.786Z,6.10
2023-05-03T14:51:06.003Z,5.22
2023-05-03T14:53:36.100Z,5.15
2023-05-03T14:56:33.715Z,5.03
2023-05-03T14:59:02.923Z,5.35
2023-05-03T15:01:30.197Z,5.18
2023-05-03T15:03:57.383Z,5.75
2023-05-03T15:06:26.619Z,5.80
2023-05-03T15:08:54.224Z,4.78
2023-05-03T15:11:23.391Z,5.07
2023-05-03T15:13:50.554Z,5.55
2023-05-03T15:16:17.892Z,5.85
2023-05-03T15:18:48.653Z,5.95
2023-05-03T15:21:18.621Z,5.82
2023-05-03T15:23:48.300Z,5.60
2023-05-03T15:26:16.182Z,4.97
2023-05-03T15:28:43.530Z,5.88
2023-05-03T15:31:14.304Z,5.38
2023-05-03T15:33:43.114Z,5.38
2023-05-03T15:36:38.562Z,4.78
2023-05-03T15:39:05.771Z,5.00
2023-05-03T15:41:37.351Z,5.57
2023-05-03T15:44:05.578Z,5.60
2023-05-03T15:46:34.087Z,4.47
2023-05-03T15:49:01.266Z,4.70
2023-05-03T15:51:29.403Z,4.78
2023-05-03T15:53:57.286Z,4.63
2023-05-03T15:56:24.627Z,5.10
2023-05-03T15:58:51.942Z,4.40
2023-05-03T16:01:19.034Z,4.65
2023-05-03T16:03:46.342Z,5.10
2023-05-03T16:06:16.708Z,5.55
2023-05-03T16:08:43.959Z,5.22
2023-05-03T16:11:11.199Z,5.28
2023-05-03T16:13:38.512Z,5.25
2023-05-03T16:16:05.881Z,5.28
2023-05-03T16:18:33.052Z,5.03
2023-05-03T16:21:01.554Z,4.95
2023-05-03T16:23:28.873Z,6.30
2023-05-03T16:25:56.735Z,5.50
2023-05-03T16:28:23.959Z,5.70
2023-05-03T16:30:51.774Z,5.38
2023-05-03T16:33:18.769Z,4.85
2023-05-03T16:35:45.939Z,5.78
2023-05-03T16:38:12.977Z,5.88
2023-05-03T16:40:40.731Z,5.05
2023-05-03T16:43:08.030Z,4.72
2023-05-03T16:45:35.127Z,5.78
2023-05-03T16:48:04.795Z,5.15
2023-05-03T16:50:33.193Z,5.18
2023-05-03T16:53:00.220Z,4.88
2023-05-03T16:55:27.236Z,5.40
2023-05-03T16:57:54.300Z,4.70
2023-05-03T17:00:21.980Z,4.75
2023-05-03T17:02:49.202Z,4.38
2023-05-03T17:05:16.436Z,5.15
2023-05-03T17:07:43.514Z,5.05
2023-05-03T17:10:16.590Z,4.80
2023-05-03T17:12:46.943Z,4.65
2023-05-03T17:15:14.001Z,4.90
2023-05-03T17:17:41.092Z,4.82
2023-05-03T17:20:10.796Z,4.97
2023-05-03T17:22:37.839Z,5.38
2023-05-03T17:25:05.886Z,5.13
2023-05-03T17:27:32.926Z,4.72
2023-05-03T17:30:00.239Z,5.07
2023-05-03T17:32:27.344Z,5.05
2023-05-03T17:34:54.428Z,4.22
2023-05-03T17:37:23.389Z,5.22
2023-05-03T17:39:50.733Z,5.00
2023-05-03T17:42:17.778Z,4.70
2023-05-03T17:44:44.798Z,4.30
2023-05-03T17:47:12.105Z,4.65
2023-05-03T17:49:39.106Z,5.22
2023-05-03T17:52:06.667Z,4.20
2023-05-03T17:54:35.198Z,4.35
2023-05-03T17:57:02.220Z,4.22
2023-05-03T17:59:29.258Z,4.05
2023-05-03T18:01:56.714Z,4.38
2023-05-03T18:04:23.896Z,4.30
2023-05-03T18:11:09.570Z,4.32
2023-05-03T18:18:02.094Z,3.90
2023-05-03T18:20:29.290Z,4.32
2023-05-03T18:22:56.964Z,4.10
2023-05-03T18:25:47.038Z,3.85
2023-05-03T18:28:16.630Z,4.85
2023-05-03T18:39:10.368Z,4.25
2023-05-03T18:42:05.378Z,4.10
2023-05-03T18:44:32.610Z,3.92
2023-05-03T18:46:59.746Z,4.10
2023-05-03T18:49:41.526Z,4.22
2023-05-03T18:56:03.143Z,3.78
2023-05-03T18:58:51.325Z,4.15
2023-05-03T19:01:18.551Z,4.03
2023-05-03T19:03:45.718Z,4.53
2023-05-03T19:06:12.797Z,4.15
2023-05-03T19:08:41.534Z,3.83
2023-05-03T19:11:13.029Z,3.95
2023-05-03T19:13:42.197Z,3.20
2023-05-03T19:16:19.589Z,3.50
2023-05-03T19:18:48.146Z,3.95
2023-05-03T19:21:20.943Z,3.63
2023-05-03T19:23:48.041Z,3.70
2023-05-03T19:26:15.133Z,3.75
2023-05-03T19:28:43.823Z,3.92
2023-05-03T19:31:10.989Z,3.50
2023-05-03T19:37:56.720Z,3.53
2023-05-03T19:40:24.982Z,3.85
2023-05-03T19:42:55.382Z,3.65
2023-05-03T19:45:24.352Z,3.63
2023-05-03T19:48:42.317Z,4.13
2023-05-03T19:51:16.856Z,4.18
2023-05-03T19:53:44.254Z,3.58
2023-05-03T19:56:13.551Z,4.53
2023-05-03T19:58:41.112Z,4.07
2023-05-03T20:01:09.096Z,4.05
2023-05-03T20:03:36.520Z,4.10
2023-05-03T20:06:03.704Z,4.00
2023-05-03T20:08:31.514Z,4.65
2023-05-03T20:14:58.226Z,3.97
2023-05-03T20:18:02.215Z,4.35
2023-05-03T20:20:30.950Z,4.45
2023-05-03T20:22:58.044Z,4.05
2023-05-03T20:25:28.077Z,3.70
2023-05-03T20:27:55.166Z,3.45
2023-05-03T20:30:22.358Z,3.53
2023-05-03T20:32:49.415Z,3.72
2023-05-03T20:35:17.152Z,4.15
2023-05-03T20:37:44.527Z,4.00
2023-05-03T20:40:12.120Z,3.65
2023-05-03T20:42:39.158Z,3.75
2023-05-03T20:45:06.760Z,3.63
2023-05-03T20:47:33.970Z,3.70
2023-05-03T20:50:02.131Z,4.05
2023-05-03T20:52:29.502Z,3.83
2023-05-03T20:54:56.487Z,5.00
2023-05-03T20:57:23.570Z,4.05
2023-05-03T20:59:54.285Z,3.88
2023-05-03T21:02:21.824Z,3.50
2023-05-03T21:04:51.707Z,4.00
2023-05-03T21:07:19.274Z,4.05
2023-05-03T21:09:46.765Z,4.55
2023-05-03T21:12:14.346Z,3.90
2023-05-03T21:14:41.959Z,3.83
2023-05-03T21:17:10.030Z,4.22
2023-05-03T21:19:37.126Z,3.95
2023-05-03T21:22:04.184Z,3.97
2023-05-03T21:24:31.291Z,4.18
2023-05-03T21:26:59.008Z,3.78
2023-05-03T21:29:26.076Z,3.88
2023-05-03T21:31:53.161Z,3.80
2023-05-03T21:34:20.206Z,3.95
2023-05-03T21:36:47.294Z,4.03
2023-05-03T21:39:14.416Z,4.10
2023-05-03T21:41:43.637Z,3.83
2023-05-03T21:44:10.765Z,4.22
2023-05-03T21:46:37.886Z,4.97
2023-05-03T21:49:05.018Z,3.97
2023-05-03T21:51:32.771Z,4.28
2023-05-03T21:53:59.817Z,3.88
2023-05-03T21:56:26.980Z,4.68
2023-05-03T21:58:54.279Z,4.93
2023-05-03T22:01:21.967Z,4.90
2023-05-03T22:03:52.783Z,4.60
2023-05-03T22:06:20.174Z,4.45
2023-05-03T22:08:47.925Z,4.38
2023-05-03T22:11:15.084Z,3.85
2023-05-03T22:13:58.709Z,4.43
2023-05-03T22:16:29.388Z,3.83
2023-05-03T22:18:56.495Z,4.18
2023-05-03T22:21:23.597Z,4.43
2023-05-03T22:23:51.388Z,4.10
2023-05-03T22:26:18.502Z,4.07
2023-05-03T22:28:45.713Z,4.50
2023-05-03T22:31:13.724Z,4.10
2023-05-03T22:33:41.482Z,4.65
2023-05-03T22:36:09.083Z,4.55
2023-05-03T22:38:36.230Z,3.90
2023-05-03T22:41:03.263Z,4.20
2023-05-03T22:47:55.807Z,4.60
2023-05-03T22:50:24.086Z,4.57
2023-05-03T22:52:51.141Z,4.55
2023-05-03T22:55:18.240Z,4.22
2023-05-03T22:57:45.253Z,4.10
2023-05-03T23:00:12.729Z,3.90
2023-05-03T23:02:39.875Z,4.03
2023-05-03T23:05:07.844Z,4.53
2023-05-03T23:07:34.875Z,4.15
2023-05-03T23:10:03.898Z,3.85
2023-05-03T23:12:31.578Z,3.97
2023-05-03T23:14:58.689Z,4.40
2023-05-03T23:17:25.914Z,3.85
2023-05-03T23:19:53.732Z,4.65
2023-05-03T23:22:20.790Z,4.35
2023-05-03T23:24:47.872Z,4.80
2023-05-03T23:27:14.963Z,5.25
2023-05-03T23:29:42.425Z,5.30
2023-05-03T23:32:10.062Z,4.53
2023-05-03T23:34:37.794Z,4.60
2023-05-03T23:37:04.866Z,4.43
2023-05-03T23:39:31.983Z,4.97
2023-05-03T23:41:59.082Z,4.60
2023-05-03T23:44:32.393Z,5.03
2023-05-03T23:47:06.692Z,5.35
2023-05-03T23:49:33.901Z,5.07
2023-05-03T23:52:01.192Z,4.45
2023-05-03T23:54:28.283Z,4.57
2023-05-03T23:56:55.625Z,4.40
2023-05-03T23:59:22.691Z,4.30
